createdAt,value
2019-01-31T00:00:44.801Z,36.03
2019-01-31T00:04:18.483Z,35.47
2019-01-31T00:07:52.224Z,34.93
2019-01-31T00:11:31.820Z,37.03
2019-01-31T00:14:50.653Z,37.93
2019-01-31T00:18:46.112Z,35.80
2019-01-31T00:22:37.989Z,35.70
2019-01-31T00:26:22.334Z,36.47
2019-01-31T00:29:59.339Z,37.60
2019-01-31T00:33:19.105Z,36.20
2019-01-31T00:36:47.817Z,37.43
2019-01-31T00:40:23.930Z,36.93
2019-01-31T00:44:21.582Z,44.53
2019-01-31T00:48:00.435Z,41.17
2019-01-31T00:51:37.700Z,38.97
2019-01-31T00:55:21.160Z,48.37
2019-01-31T00:59:04.468Z,39.00
2019-01-31T01:02:44.729Z,37.20
2019-01-31T01:06:23.475Z,37.53
2019-01-31T01:09:59.204Z,38.17
2019-01-31T01:13:52.096Z,37.87
2019-01-31T01:17:16.615Z,34.10
2019-01-31T01:20:41.894Z,30.97
2019-01-31T01:24:02.676Z,33.17
2019-01-31T01:27:42.926Z,31.37
2019-01-31T01:31:41.860Z,31.20
2019-01-31T01:35:34.450Z,27.03
2019-01-31T01:39:19.255Z,25.93
2019-01-31T01:42:42.107Z,25.90
2019-01-31T01:46:26.426Z,25.83
2019-01-31T01:50:02.392Z,29.77
2019-01-31T01:53:59.093Z,28.23
2019-01-31T01:57:35.295Z,29.37
2019-01-31T02:01:25.294Z,28.70
2019-01-31T02:05:09.560Z,29.43
2019-01-31T02:09:04.658Z,28.07
2019-01-31T02:12:42.159Z,30.57
2019-01-31T02:16:23.485Z,29.37
2019-01-31T02:20:18.745Z,30.93
2019-01-31T02:23:43.660Z,29.87
2019-01-31T02:27:13.413Z,29.03
2019-01-31T02:31:02.383Z,28.97
2019-01-31T02:34:48.267Z,29.47
2019-01-31T02:38:07.915Z,29.30
2019-01-31T02:41:29.231Z,28.80
2019-01-31T02:45:02.444Z,30.33
2019-01-31T02:48:18.132Z,30.13
2019-01-31T02:51:49.793Z,29.47
2019-01-31T02:55:39.319Z,29.97
2019-01-31T02:59:18.467Z,30.60
2019-01-31T03:02:40.599Z,29.20
2019-01-31T03:06:14.120Z,30.27
2019-01-31T03:10:03.906Z,29.53
2019-01-31T03:13:35.821Z,29.23
2019-01-31T03:17:17.157Z,29.07
2019-01-31T03:20:42.983Z,28.43
2019-01-31T03:24:30.428Z,29.20
2019-01-31T03:28:32.503Z,23.50
2019-01-31T03:32:03.916Z,25.10
2019-01-31T03:35:36.332Z,24.67
2019-01-31T03:39:26.905Z,23.57
2019-01-31T03:43:19.051Z,17.20
2019-01-31T03:47:08.328Z,18.77
2019-01-31T03:51:03.487Z,17.40
2019-01-31T03:54:53.798Z,16.87
2019-01-31T03:58:27.428Z,14.93
2019-01-31T04:01:49.152Z,15.40
2019-01-31T04:05:34.916Z,14.80
2019-01-31T04:08:40.886Z,14.23
2019-01-31T04:11:46.946Z,12.70
2019-01-31T04:14:52.802Z,12.93
2019-01-31T04:17:58.709Z,13.57
2019-01-31T04:21:04.651Z,14.87
2019-01-31T04:24:10.729Z,16.60
2019-01-31T04:27:16.607Z,15.90
2019-01-31T04:30:22.667Z,15.93
2019-01-31T04:33:28.622Z,16.70
2019-01-31T04:36:34.570Z,16.83
2019-01-31T04:39:40.432Z,18.20
2019-01-31T04:42:46.395Z,18.27
2019-01-31T04:45:52.257Z,18.37
2019-01-31T04:48:58.266Z,19.03
2019-01-31T04:52:05.312Z,22.67
2019-01-31T04:55:11.372Z,20.70
2019-01-31T04:58:17.216Z,103.93
2019-01-31T05:01:23.062Z,24.77
2019-01-31T05:04:28.913Z,40.50
2019-01-31T05:07:34.769Z,23.53
2019-01-31T05:10:43.327Z,23.97
2019-01-31T05:13:48.258Z,21.73
2019-01-31T05:16:54.089Z,18.60
2019-01-31T05:19:59.983Z,18.23
2019-01-31T05:23:06.019Z,18.90
2019-01-31T05:26:11.922Z,22.50
2019-01-31T05:29:17.837Z,27.70
2019-01-31T05:32:23.736Z,20.17
2019-01-31T05:35:29.777Z,19.90
2019-01-31T05:38:35.630Z,19.77
2019-01-31T05:41:41.613Z,18.77
2019-01-31T05:44:47.676Z,21.17
2019-01-31T05:47:53.502Z,20.40
2019-01-31T05:50:59.370Z,22.83
2019-01-31T05:54:05.535Z,32.67
2019-01-31T05:57:11.474Z,30.83
2019-01-31T06:00:22.599Z,25.73
2019-01-31T06:03:28.482Z,26.13
2019-01-31T06:06:34.358Z,36.47
2019-01-31T06:09:40.198Z,32.53
2019-01-31T06:12:46.182Z,31.37
2019-01-31T06:15:52.013Z,35.40
2019-01-31T06:18:57.895Z,38.17
2019-01-31T06:22:03.861Z,39.00
2019-01-31T06:25:09.923Z,37.70
2019-01-31T06:28:15.783Z,36.70
2019-01-31T06:31:21.640Z,34.63
2019-01-31T06:34:27.492Z,32.23
2019-01-31T06:37:33.350Z,28.47
2019-01-31T06:40:39.284Z,32.57
2019-01-31T06:43:45.136Z,31.43
2019-01-31T06:46:51.027Z,31.00
2019-01-31T06:49:56.879Z,30.37
2019-01-31T06:53:02.778Z,31.90
2019-01-31T06:56:08.732Z,29.73
2019-01-31T06:59:14.744Z,29.67
2019-01-31T07:02:20.618Z,26.40
2019-01-31T07:05:26.445Z,24.80
2019-01-31T07:08:32.279Z,31.83
2019-01-31T07:11:38.239Z,26.70
2019-01-31T07:14:44.096Z,30.07
2019-01-31T07:17:50.236Z,31.03
2019-01-31T07:20:56.196Z,31.57
2019-01-31T07:24:02.172Z,28.17
2019-01-31T07:27:07.994Z,27.40
2019-01-31T07:30:14.950Z,30.10
2019-01-31T07:33:20.808Z,33.13
2019-01-31T07:36:26.790Z,28.67
2019-01-31T07:39:32.734Z,29.80
2019-01-31T07:42:38.604Z,29.33
2019-01-31T07:45:44.719Z,27.60
2019-01-31T07:48:50.645Z,27.93
2019-01-31T07:51:56.501Z,28.60
2019-01-31T07:55:02.419Z,29.80
2019-01-31T07:58:08.345Z,26.83
2019-01-31T08:01:14.417Z,31.10
2019-01-31T08:04:20.270Z,31.30
2019-01-31T08:07:28.746Z,37.03
2019-01-31T08:10:37.948Z,32.63
2019-01-31T08:13:43.783Z,31.23
2019-01-31T08:16:49.658Z,31.30
2019-01-31T08:19:55.511Z,35.30
2019-01-31T08:23:01.569Z,37.30
2019-01-31T08:26:08.555Z,43.83
2019-01-31T08:29:14.589Z,49.03
2019-01-31T08:32:20.558Z,39.17
2019-01-31T08:35:26.512Z,27.47
2019-01-31T08:38:32.364Z,28.13
2019-01-31T08:41:38.316Z,24.03
2019-01-31T08:44:44.274Z,26.47
2019-01-31T08:47:50.306Z,22.73
2019-01-31T08:50:56.327Z,41.80
2019-01-31T08:54:02.209Z,23.50
2019-01-31T08:57:08.224Z,24.63
2019-01-31T09:00:22.730Z,17.23
2019-01-31T09:03:28.712Z,22.53
2019-01-31T09:06:34.679Z,21.17
2019-01-31T09:09:41.658Z,20.13
2019-01-31T09:12:47.655Z,21.37
2019-01-31T09:15:53.513Z,21.73
2019-01-31T09:18:59.293Z,26.80
2019-01-31T09:22:14.589Z,23.30
2019-01-31T09:25:52.555Z,28.03
2019-01-31T09:29:31.732Z,27.67
2019-01-31T09:33:28.853Z,30.40
2019-01-31T09:37:18.334Z,31.27
2019-01-31T09:40:54.175Z,36.30
2019-01-31T09:44:48.574Z,29.87
2019-01-31T09:48:34.543Z,24.13
2019-01-31T09:52:17.759Z,25.10
2019-01-31T09:55:57.307Z,25.13
2019-01-31T09:59:49.678Z,25.27
2019-01-31T10:03:34.707Z,27.73
2019-01-31T10:07:26.031Z,32.50
2019-01-31T10:11:14.522Z,33.57
2019-01-31T10:14:53.081Z,33.93
2019-01-31T10:18:24.626Z,38.93
2019-01-31T10:22:18.852Z,39.97
2019-01-31T10:26:11.139Z,36.97
2019-01-31T10:30:05.452Z,29.90
2019-01-31T10:33:42.434Z,29.30
2019-01-31T10:37:34.431Z,29.63
2019-01-31T10:41:12.954Z,27.27
2019-01-31T10:44:53.063Z,26.63
2019-01-31T10:48:44.178Z,26.40
2019-01-31T10:52:38.998Z,26.03
2019-01-31T10:56:19.726Z,24.67
2019-01-31T11:00:21.241Z,26.33
2019-01-31T11:04:15.425Z,26.17
2019-01-31T11:08:02.248Z,26.73
2019-01-31T11:11:24.684Z,24.53
2019-01-31T11:15:01.519Z,26.20
2019-01-31T11:18:48.815Z,28.10
2019-01-31T11:22:40.093Z,28.07
2019-01-31T11:26:35.598Z,28.40
2019-01-31T11:30:18.028Z,27.90
2019-01-31T11:34:14.702Z,29.47
2019-01-31T11:37:41.821Z,30.07
2019-01-31T11:41:31.384Z,29.60
2019-01-31T11:45:26.981Z,29.00
2019-01-31T11:49:09.395Z,27.50
2019-01-31T11:53:01.314Z,24.13
2019-01-31T11:56:28.243Z,26.53
2019-01-31T11:59:34.051Z,28.10
2019-01-31T12:02:39.990Z,29.83
2019-01-31T12:05:45.927Z,115.97
2019-01-31T12:08:51.725Z,25.83
2019-01-31T12:11:57.665Z,27.13
2019-01-31T12:15:03.673Z,27.93
2019-01-31T12:18:10.318Z,25.93
2019-01-31T12:21:16.259Z,75.57
2019-01-31T12:24:22.171Z,30.57
2019-01-31T12:27:28.082Z,28.23
2019-01-31T12:30:33.957Z,35.30
2019-01-31T12:33:39.785Z,31.10
2019-01-31T12:36:45.785Z,28.37
2019-01-31T12:39:52.186Z,44.70
2019-01-31T12:42:58.263Z,33.57
2019-01-31T12:46:04.358Z,30.40
2019-01-31T12:49:10.324Z,35.27
2019-01-31T12:52:16.251Z,37.03
2019-01-31T12:55:22.203Z,33.60
2019-01-31T12:58:33.750Z,42.17
2019-01-31T13:01:35.992Z,47.87
2019-01-31T13:04:41.998Z,40.87
2019-01-31T13:07:48.119Z,50.80
2019-01-31T13:10:54.056Z,53.73
2019-01-31T13:13:59.957Z,44.73
2019-01-31T13:17:07.260Z,49.50
2019-01-31T13:20:19.184Z,38.00
2019-01-31T13:23:25.282Z,55.70
2019-01-31T13:26:31.168Z,52.30
2019-01-31T13:29:37.017Z,36.43
2019-01-31T13:32:43.003Z,31.53
2019-01-31T13:35:49.573Z,42.10
2019-01-31T13:38:55.916Z,31.93
2019-01-31T13:42:01.840Z,35.43
2019-01-31T13:45:09.153Z,31.00
2019-01-31T13:48:16.620Z,34.80
2019-01-31T13:51:22.394Z,48.10
2019-01-31T13:54:28.690Z,44.03
2019-01-31T13:57:34.589Z,41.70
2019-01-31T14:00:40.571Z,65.17
2019-01-31T14:03:46.422Z,48.67
2019-01-31T14:06:52.529Z,41.53
2019-01-31T14:09:58.388Z,107.43
2019-01-31T14:13:04.383Z,129.57
2019-01-31T14:16:10.456Z,43.77
2019-01-31T14:19:16.432Z,47.43
2019-01-31T14:22:22.377Z,48.13
2019-01-31T14:25:28.453Z,92.13
2019-01-31T14:28:34.580Z,109.50
2019-01-31T14:31:40.520Z,70.53
2019-01-31T14:34:46.407Z,101.17
2019-01-31T14:37:52.373Z,75.40
2019-01-31T14:40:58.313Z,91.60
2019-01-31T14:44:04.595Z,74.57
2019-01-31T14:47:10.482Z,64.63
2019-01-31T14:50:20.356Z,75.03
2019-01-31T14:53:26.337Z,60.10
2019-01-31T14:56:32.189Z,50.63
2019-01-31T14:59:38.084Z,58.03
2019-01-31T15:02:43.954Z,59.47
2019-01-31T15:05:49.836Z,46.07
2019-01-31T15:08:55.760Z,43.90
2019-01-31T15:12:01.787Z,38.63
2019-01-31T15:15:08.819Z,39.50
2019-01-31T15:18:14.918Z,39.60
2019-01-31T15:21:20.944Z,37.70
2019-01-31T15:24:27.488Z,47.57
2019-01-31T15:27:33.477Z,46.90
2019-01-31T15:30:39.563Z,62.07
2019-01-31T15:33:45.401Z,41.00
2019-01-31T15:36:51.395Z,38.73
2019-01-31T15:39:59.449Z,35.87
2019-01-31T15:43:05.481Z,55.60
2019-01-31T15:46:11.509Z,38.63
2019-01-31T15:49:18.685Z,42.47
2019-01-31T15:52:24.670Z,41.40
2019-01-31T15:55:30.808Z,46.53
2019-01-31T15:58:36.896Z,43.40
2019-01-31T16:01:42.754Z,43.40
2019-01-31T16:04:48.779Z,38.30
2019-01-31T16:07:54.750Z,38.13
2019-01-31T16:11:00.766Z,38.97
2019-01-31T16:14:07.006Z,40.87
2019-01-31T16:17:13.108Z,40.23
2019-01-31T16:20:19.107Z,39.57
2019-01-31T16:23:25.236Z,46.83
2019-01-31T16:26:31.244Z,43.47
2019-01-31T16:29:37.104Z,38.17
2019-01-31T16:32:43.060Z,45.13
2019-01-31T16:35:49.726Z,40.80
2019-01-31T16:38:55.686Z,43.57
2019-01-31T16:42:01.665Z,37.70
2019-01-31T16:45:09.698Z,40.13
2019-01-31T16:48:15.702Z,38.07
2019-01-31T16:51:21.676Z,36.60
2019-01-31T16:54:27.648Z,39.93
2019-01-31T16:57:33.626Z,36.83
2019-01-31T17:00:39.683Z,44.80
2019-01-31T17:03:45.650Z,73.50
2019-01-31T17:06:51.607Z,61.07
2019-01-31T17:09:57.814Z,72.67
2019-01-31T17:13:04.319Z,59.73
2019-01-31T17:16:11.183Z,96.77
2019-01-31T17:19:17.283Z,65.60
2019-01-31T17:22:23.284Z,73.73
2019-01-31T17:25:29.343Z,62.30
2019-01-31T17:28:35.303Z,51.43
2019-01-31T17:31:41.411Z,49.90
2019-01-31T17:34:47.272Z,46.67
2019-01-31T17:37:53.241Z,42.80
2019-01-31T17:40:59.196Z,38.97
2019-01-31T17:44:05.346Z,35.80
2019-01-31T17:47:11.330Z,48.30
2019-01-31T17:50:17.697Z,42.27
2019-01-31T17:53:23.573Z,31.30
2019-01-31T17:56:29.444Z,32.33
2019-01-31T17:59:35.382Z,27.03
2019-01-31T18:02:45.501Z,26.93
2019-01-31T18:05:49.049Z,26.63
2019-01-31T18:08:54.874Z,22.37
2019-01-31T18:12:00.744Z,27.63
2019-01-31T18:15:07.695Z,19.43
2019-01-31T18:18:13.726Z,18.13
2019-01-31T18:21:19.659Z,15.20
2019-01-31T18:24:25.498Z,12.57
2019-01-31T18:27:31.355Z,7.67
2019-01-31T18:30:37.412Z,5.17
2019-01-31T18:33:43.233Z,3.07
2019-01-31T18:36:49.214Z,3.73
2019-01-31T18:39:55.092Z,4.83
2019-01-31T18:43:00.945Z,2.97
2019-01-31T18:46:07.129Z,2.60
2019-01-31T18:49:15.025Z,2.93
2019-01-31T18:52:20.968Z,2.63
2019-01-31T18:55:27.727Z,2.33
2019-01-31T18:58:33.574Z,3.60
2019-01-31T19:01:43.573Z,3.50
2019-01-31T19:04:49.524Z,6.77
2019-01-31T19:07:55.864Z,5.37
2019-01-31T19:11:02.064Z,6.57
2019-01-31T19:14:08.053Z,6.17
2019-01-31T19:17:13.988Z,4.37
2019-01-31T19:20:27.831Z,2.73
2019-01-31T19:23:33.794Z,4.17
2019-01-31T19:26:39.658Z,4.23
2019-01-31T19:29:49.444Z,4.40
2019-01-31T19:32:55.515Z,4.53
2019-01-31T19:36:01.347Z,3.70
2019-01-31T19:39:17.843Z,3.77
2019-01-31T19:42:25.556Z,2.93
2019-01-31T19:45:43.243Z,2.13
2019-01-31T19:48:57.171Z,3.77
2019-01-31T19:52:03.856Z,3.90
2019-01-31T19:55:11.722Z,3.60
2019-01-31T19:58:17.574Z,4.17
2019-01-31T20:01:23.437Z,5.60
2019-01-31T20:04:30.479Z,3.43
2019-01-31T20:07:36.546Z,4.90
2019-01-31T20:10:42.607Z,3.73
2019-01-31T20:13:48.665Z,4.27
2019-01-31T20:16:54.658Z,3.00
2019-01-31T20:20:00.544Z,3.47
2019-01-31T20:23:07.394Z,2.23
2019-01-31T20:26:13.361Z,1.93
2019-01-31T20:29:19.430Z,2.63
2019-01-31T20:32:25.309Z,2.17
2019-01-31T20:35:31.763Z,2.10
2019-01-31T20:38:38.048Z,3.00
2019-01-31T20:41:53.851Z,6.10
2019-01-31T20:44:52.808Z,3.17
2019-01-31T20:47:58.961Z,3.90
2019-01-31T20:51:06.005Z,3.70
2019-01-31T20:54:12.038Z,3.40
2019-01-31T20:57:17.957Z,2.70
2019-01-31T21:00:28.066Z,3.93
2019-01-31T21:03:34.021Z,4.47
2019-01-31T21:06:41.373Z,4.50
2019-01-31T21:09:47.747Z,2.80
2019-01-31T21:12:53.889Z,2.80
2019-01-31T21:15:59.852Z,3.40
2019-01-31T21:19:06.398Z,4.70
2019-01-31T21:22:12.303Z,7.47
2019-01-31T21:25:18.733Z,4.67
2019-01-31T21:28:24.544Z,4.00
2019-01-31T21:31:31.630Z,4.93
2019-01-31T21:34:38.817Z,4.90
2019-01-31T21:37:45.121Z,6.70
2019-01-31T21:40:51.066Z,9.13
2019-01-31T21:43:56.995Z,6.10
2019-01-31T21:47:03.605Z,7.20
2019-01-31T21:50:12.007Z,4.17
2019-01-31T21:53:18.011Z,4.57
2019-01-31T21:56:23.969Z,5.80
2019-01-31T21:59:29.925Z,4.67
2019-01-31T22:02:36.029Z,2.80
2019-01-31T22:05:42.011Z,3.97
2019-01-31T22:08:47.977Z,4.53
2019-01-31T22:11:53.804Z,3.40
2019-01-31T22:14:59.648Z,3.53
2019-01-31T22:18:07.320Z,2.60
2019-01-31T22:21:13.269Z,3.10
2019-01-31T22:24:19.297Z,2.60
2019-01-31T22:27:25.156Z,2.83
2019-01-31T22:30:36.559Z,2.80
2019-01-31T22:33:42.426Z,2.70
2019-01-31T22:36:48.385Z,3.00
2019-01-31T22:39:55.389Z,2.70
2019-01-31T22:43:01.548Z,2.90
2019-01-31T22:46:07.516Z,2.50
2019-01-31T22:49:13.341Z,3.07
2019-01-31T22:52:19.382Z,3.13
2019-01-31T22:55:26.422Z,3.20
2019-01-31T22:58:32.649Z,3.33
2019-01-31T23:01:44.865Z,3.13
2019-01-31T23:04:50.793Z,3.50
2019-01-31T23:07:56.843Z,3.63
2019-01-31T23:11:02.748Z,3.47
2019-01-31T23:14:08.827Z,3.03
2019-01-31T23:17:14.808Z,2.83
2019-01-31T23:20:20.650Z,3.00
2019-01-31T23:23:26.606Z,3.17
2019-01-31T23:26:32.706Z,3.27
2019-01-31T23:29:38.565Z,3.73
2019-01-31T23:32:44.614Z,2.83
2019-01-31T23:35:50.567Z,3.90
2019-01-31T23:38:57.497Z,3.80
2019-01-31T23:42:03.529Z,3.70
2019-01-31T23:45:12.061Z,3.57
2019-01-31T23:48:18.019Z,3.63
2019-01-31T23:51:24.061Z,3.30
2019-01-31T23:54:29.899Z,3.20
2019-01-31T23:57:35.927Z,3.30
